ZSPD/PVG METAR and TAF weather

Enter ICAO airport designator
Station Type Date Time Source
ZSPD METAR 2021/05/11 00:00 UTC NOAA

ZSPD 110000Z 21002MPS 160V250 8000 NSC 23/22 Q1004 NOSIG


Station Type Date Time Source
ZSPD Decoded METAR 2021/05/11 00:00 UTC NOAA

Shanghai / Pudong, China (ZSPD) 31-07N 121-46E
May 10, 2021 - 08:00 PM EDT / 2021.05.11 0000 UTC
Wind: from the SSW (210 degrees) at 4 MPH (4 KT) (direction variable):0
Visibility: 4 mile(s):0
Temperature: 73 F (23 C)
Dew Point: 71 F (22 C)
Relative Humidity: 94%
Pressure (altimeter): 29.65 in. Hg (1004 hPa)
ob: ZSPD 110000Z 21002MPS 160V250 8000 NSC 23/22 Q1004 NOSIG
cycle: 0

Station Type Date Time Source
ZSPD TAF 2021/05/10 18:03 UTC NOAA

TAF TAF ZSPD 101511Z 1018/1118 15004MPS 5000 -SHRA BR BKN015 TX25/1106Z TN20/1021Z
TEMPO 1018/1024 35009G15MPS 2000 TSRA BKN006 SCT030CB OVC040
TEMPO 1106/1112 TSRA BKN010 SCT030CB OVC040

Example: see airport list